Terminal Aerodrome Forecast
Issued by NWS Wilmington, OH

Current Version | Previous Version | Graphics & Text | Print | Product List | Glossary On
Versions: 1 2 3 4 5 6 7 8 9 10 11 12 13 14 15 16 17
000
FTUS41 KILN 261139
TAFDAY
TAF
KDAY 261139Z 2612/2712 21009KT P6SM SCT020 SCT060 BKN150
      TEMPO 2612/2614 BKN020
     FM261700 21012KT P6SM BKN035
     FM270000 19006KT P6SM SCT040 BKN250=

USA.gov is the U.S. government's official web portal to all federal, state and local government web resources and services.